CSZ8 weather

Public forecast

Using degrees Celsius for public forecast. Weather courtesy of forecast.io.

Closest aviation weather report (METAR) to Montréal (Sacré-Coeur) Heliport

Closest report is Montreal / Pierre Elliott Trudeau International Airport, 3.9 nm (7.3 km) SSW. Retrieved 2020/08/13 16:00 UTC (33 minutes ago):

CYUL 131600Z 35003KT 310V040 15SM FEW045 SCT210 27/16 A3013 RMK CU1CI4 CU TR SLP203 DENSITY ALT 1300FT

Closest aviation forecast (TAF) to Montréal (Sacré-Coeur) Heliport

Closest forecast is Montreal / Pierre Elliott Trudeau International Airport, 3.9 nm (7.3 km) SSW. Retrieved 2020/08/13 15:42 UTC (51 minutes ago):

TAF CYUL 131438Z 1315/1412 25005KT P6SM BKN230 FM131800 24008KT P6SM SCT060 FM140000 15007KT P6SM BKN050 BECMG 1401/1403 04007KT RMK NXT FCST BY 131800Z